Time;durP1;ratioP1;P1;durP2;ratioP2;P2;SDS_P1;SDS_P2;PMS_P1;PMS_P2;Temp;Humidity;BMP_temperature;BMP_pressure;BME280_temperature;BME280_humidity;BME280_pressure;Samples;Min_cycle;Max_cycle;Signal;HPM_P1;HPM_P2
2022/11/20 00:01:53;;;;;;;16.73;8.75;;;-0.30;99.90;;;;;;6189006;23;20036;-95
2022/11/20 00:08:19;;;;;;;16.77;9.30;;;-0.20;99.90;;;;;;6215104;23;20639;-96
2022/11/20 00:14:49;;;;;;;15.90;9.57;;;-0.20;99.90;;;;;;6188216;23;20021;-95
2022/11/20 00:17:55;;;;;;;19.30;10.15;;;0.00;99.90;;;;;;6188823;23;20024;-95
2022/11/20 00:20:23;;;;;;;16.33;8.95;;;-0.10;99.90;;;;;;6187362;23;20024;-95
2022/11/20 00:23:09;;;;;;;16.75;8.63;;;0.00;99.90;;;;;;6115869;23;20067;-96
2022/11/20 00:25:35;;;;;;;17.77;9.07;;;-1.20;99.90;;;;;;6164174;23;20773;-96
2022/11/20 00:28:02;;;;;;;16.88;9.73;;;-0.10;99.90;;;;;;6139416;23;20099;-95
2022/11/20 00:34:10;;;;;;;14.85;8.65;;;0.00;99.90;;;;;;6214828;23;20071;-96
2022/11/20 00:44:24;;;;;;;14.63;8.80;;;0.10;99.90;;;;;;6217342;23;20055;-95
2022/11/20 00:47:09;;;;;;;14.30;7.95;;;-0.90;99.90;;;;;;6141474;23;20023;-95
2022/11/20 00:50:12;;;;;;;13.43;7.35;;;1.60;99.90;;;;;;6165523;23;20020;-95
2022/11/20 00:52:39;;;;;;;12.77;7.40;;;0.10;99.90;;;;;;6161464;23;20025;-96
2022/11/20 00:59:04;;;;;;;14.02;7.55;;;-1.20;99.90;;;;;;6185540;23;20100;-95
2022/11/20 01:09:09;;;;;;;12.15;7.32;;;0.20;99.90;;;;;;6186298;23;20017;-95
2022/11/20 01:18:33;;;;;;;13.68;7.13;;;0.20;99.90;;;;;;6186168;23;20032;-95
2022/11/20 01:21:20;;;;;;;13.07;7.45;;;0.20;99.90;;;;;;6112028;23;20029;-96
2022/11/20 01:24:10;;;;;;;12.32;7.10;;;0.20;99.90;;;;;;6137352;23;20017;-96
2022/11/20 01:26:40;;;;;;;14.00;7.30;;;0.20;99.90;;;;;;6136448;23;20025;-95
2022/11/20 01:29:07;;;;;;;12.65;7.03;;;0.40;99.90;;;;;;6139831;23;20024;-96
2022/11/20 01:38:37;;;;;;;12.48;6.88;;;0.30;99.90;;;;;;6186141;23;20016;-94
2022/11/20 01:44:48;;;;;;;16.05;7.78;;;0.30;99.90;;;;;;6185235;23;20025;-94
2022/11/20 01:47:23;;;;;;;12.90;7.20;;;0.30;99.90;;;;;;6135866;23;20105;-95
2022/11/20 01:50:15;;;;;;;12.52;7.15;;;0.30;99.90;;;;;;6159684;23;20258;-95
2022/11/20 01:52:50;;;;;;;12.40;7.53;;;0.30;99.90;;;;;;6165346;23;20021;-95
2022/11/20 01:55:25;;;;;;;13.45;7.75;;;0.30;99.90;;;;;;6165425;23;20028;-95
2022/11/20 01:57:51;;;;;;;12.05;6.97;;;0.40;99.90;;;;;;6165065;23;20013;-94
2022/11/20 02:00:19;;;;;;;15.52;7.05;;;0.30;99.90;;;;;;6165045;23;20082;-95
2022/11/20 02:03:07;;;;;;;14.10;7.35;;;0.40;99.90;;;;;;6140073;23;20013;-96
2022/11/20 02:06:11;;;;;;;12.35;7.32;;;0.40;99.90;;;;;;6163422;23;20055;-96
2022/11/20 02:09:17;;;;;;;13.02;7.30;;;0.40;99.90;;;;;;6190391;23;20020;-95
2022/11/20 02:19:03;;;;;;;12.68;7.72;;;0.30;99.90;;;;;;6239677;23;20055;-93
2022/11/20 02:21:56;;;;;;;13.35;8.13;;;0.30;99.90;;;;;;6164768;23;20017;-94
2022/11/20 02:31:41;;;;;;;13.55;7.47;;;0.30;99.90;;;;;;6240301;23;20052;-94
2022/11/20 02:41:41;;;;;;;10.65;6.10;;;0.20;99.90;;;;;;6239826;23;20028;-94
2022/11/20 02:44:09;;;;;;;11.88;7.13;;;0.40;99.90;;;;;;6189489;23;20021;-95
2022/11/20 02:46:37;;;;;;;13.48;7.38;;;0.30;99.90;;;;;;6189322;23;20597;-94
2022/11/20 02:49:04;;;;;;;12.18;6.90;;;0.30;99.90;;;;;;6165121;23;20339;-95
2022/11/20 02:51:31;;;;;;;;;;;0.30;99.90;;;;;;6123465;23;20238;-95
2022/11/20 02:54:23;;;;;;;12.07;7.20;;;0.30;99.90;;;;;;6138378;23;19916;-94
2022/11/20 02:56:50;;;;;;;12.55;7.38;;;0.40;99.90;;;;;;6139613;23;20021;-94
2022/11/20 02:59:18;;;;;;;12.73;7.13;;;0.30;99.90;;;;;;6118661;23;20017;-95
2022/11/20 03:01:43;;;;;;;11.77;7.57;;;0.40;99.90;;;;;;6118396;23;20048;-95
2022/11/20 03:04:47;;;;;;;14.50;7.95;;;0.40;99.90;;;;;;6091333;23;20017;-95
2022/11/20 03:07:13;;;;;;;13.70;7.57;;;0.50;99.90;;;;;;6167760;22;20020;-95
2022/11/20 03:09:39;;;;;;;13.18;7.38;;;0.40;99.90;;;;;;6219020;23;20016;-94
2022/11/20 03:12:45;;;;;;;13.48;8.77;;;0.30;99.90;;;;;;6218262;23;20627;-96
2022/11/20 03:15:13;;;;;;;12.88;7.78;;;0.40;99.90;;;;;;6218999;23;20020;-93
2022/11/20 03:18:03;;;;;;;12.77;7.40;;;0.40;99.90;;;;;;6194356;23;20073;-93
2022/11/20 03:20:31;;;;;;;13.13;7.85;;;0.40;99.90;;;;;;6218334;23;20054;-94
2022/11/20 03:22:59;;;;;;;12.10;7.13;;;0.60;99.90;;;;;;6218765;23;20058;-95
2022/11/20 03:32:47;;;;;;;13.15;6.65;;;0.50;99.90;;;;;;6248679;23;20026;-96
2022/11/20 03:35:14;;;;;;;10.02;6.93;;;0.50;99.90;;;;;;6223627;23;20339;-95
2022/11/20 03:37:41;;;;;;;12.82;6.40;;;0.50;99.90;;;;;;6204818;23;20414;-96
2022/11/20 03:40:09;;;;;;;11.27;6.35;;;0.50;99.90;;;;;;6207169;23;20189;-95
2022/11/20 03:42:54;;;;;;;10.43;5.90;;;0.60;99.90;;;;;;6182168;23;20050;-94
2022/11/20 03:45:20;;;;;;;9.60;5.63;;;0.50;99.90;;;;;;6192483;22;20050;-94
2022/11/20 03:47:48;;;;;;;10.57;6.38;;;1.70;99.90;;;;;;6224155;22;20066;-95
2022/11/20 03:50:33;;;;;;;9.98;5.82;;;0.50;99.90;;;;;;6198231;22;20055;-96
2022/11/20 03:53:39;;;;;;;10.07;5.70;;;0.50;99.90;;;;;;6223614;22;20038;-95
2022/11/20 03:56:05;;;;;;;8.27;5.55;;;0.50;99.90;;;;;;6224456;22;20058;-95
2022/11/20 03:58:35;;;;;;;9.13;5.47;;;0.40;99.90;;;;;;6199164;22;20015;-95
2022/11/20 04:01:22;;;;;;;11.57;6.00;;;0.40;99.90;;;;;;6175432;22;20058;-95
2022/11/20 04:03:51;;;;;;;10.75;5.55;;;0.50;99.90;;;;;;6223682;22;20015;-94
2022/11/20 04:09:45;;;;;;;10.75;6.18;;;0.60;99.90;;;;;;6240068;23;20052;-95
2022/11/20 04:12:12;;;;;;;11.25;5.90;;;0.60;99.90;;;;;;6144268;23;20050;-96
2022/11/20 04:14:38;;;;;;;11.70;6.50;;;0.60;99.90;;;;;;6192884;23;20071;-94
2022/11/20 04:17:05;;;;;;;11.10;6.22;;;0.60;99.90;;;;;;6194195;23;20020;-93
2022/11/20 04:19:49;;;;;;;9.15;5.65;;;0.50;99.90;;;;;;6168668;23;20012;-94
2022/11/20 04:22:54;;;;;;;10.60;5.53;;;0.60;99.90;;;;;;6168196;23;20020;-96
2022/11/20 04:25:22;;;;;;;10.45;5.75;;;0.60;99.90;;;;;;6192990;23;20012;-95
2022/11/20 04:28:08;;;;;;;10.10;5.70;;;0.80;99.90;;;;;;6168538;23;20051;-96
2022/11/20 04:30:34;;;;;;;11.38;5.72;;;0.60;99.90;;;;;;6168190;23;20024;-96
2022/11/20 04:33:37;;;;;;;8.95;5.60;;;0.60;99.90;;;;;;6168143;23;20012;-96
2022/11/20 04:36:12;;;;;;;9.30;5.68;;;0.60;99.90;;;;;;6191570;23;20017;-95
2022/11/20 04:38:40;;;;;;;9.85;5.63;;;0.60;99.90;;;;;;6192910;23;20055;-96
2022/11/20 04:41:30;;;;;;;9.10;5.22;;;0.60;99.90;;;;;;6192220;23;20068;-95
2022/11/20 04:47:39;;;;;;;9.63;5.97;;;0.60;99.90;;;;;;6245457;23;20015;-96
2022/11/20 04:50:06;;;;;;;10.75;5.75;;;0.70;99.90;;;;;;6192461;23;20082;-95
2022/11/20 04:52:32;;;;;;;9.25;5.85;;;0.70;99.90;;;;;;6192344;23;20071;-95
2022/11/20 04:55:01;;;;;;;10.60;5.80;;;0.60;99.90;;;;;;6193799;23;20020;-94
2022/11/20 04:57:29;;;;;;;13.73;6.35;;;0.60;99.90;;;;;;6169095;23;20058;-94
2022/11/20 04:59:54;;;;;;;12.05;6.25;;;0.60;99.90;;;;;;6168827;23;20099;-95
2022/11/20 05:02:21;;;;;;;9.45;5.72;;;0.70;99.90;;;;;;6193758;23;20102;-92
2022/11/20 05:08:29;;;;;;;11.20;6.05;;;0.70;99.90;;;;;;6245311;22;20043;-94
2022/11/20 05:14:27;;;;;;;10.10;5.82;;;0.70;99.90;;;;;;6218202;23;20020;-94
2022/11/20 05:16:54;;;;;;;12.45;6.30;;;0.60;99.90;;;;;;6169168;23;20126;-95
2022/11/20 05:19:22;;;;;;;11.35;7.03;;;0.70;99.90;;;;;;6192714;23;20060;-94
2022/11/20 05:22:08;;;;;;;12.77;6.38;;;0.70;99.90;;;;;;6218197;23;20012;-95
2022/11/20 05:24:34;;;;;;;12.70;6.32;;;0.60;99.90;;;;;;6193825;23;20105;-94
2022/11/20 05:27:19;;;;;;;10.43;6.07;;;-0.40;99.90;;;;;;6194676;23;20015;-94
2022/11/20 05:30:06;;;;;;;13.65;7.53;;;0.60;99.90;;;;;;6245128;23;20023;-95
2022/11/20 05:32:34;;;;;;;11.02;6.50;;;0.70;99.90;;;;;;6194455;23;20028;-94
2022/11/20 05:35:19;;;;;;;11.38;6.15;;;0.60;99.90;;;;;;6194413;23;20070;-95
2022/11/20 05:38:24;;;;;;;9.90;6.18;;;0.60;99.90;;;;;;6220532;23;20012;-96
2022/11/20 05:41:27;;;;;;;11.30;6.15;;;0.70;99.90;;;;;;6195254;23;20065;-94
2022/11/20 05:43:53;;;;;;;9.45;6.43;;;0.70;99.90;;;;;;6194866;23;20431;-95
2022/11/20 05:46:24;;;;;;;11.23;6.35;;;0.80;99.90;;;;;;6220134;23;20028;-93
2022/11/20 05:48:51;;;;;;;14.85;6.60;;;0.70;99.90;;;;;;6219479;23;20017;-95
2022/11/20 05:51:56;;;;;;;11.48;6.53;;;0.00;99.90;;;;;;6194823;23;20031;-95
2022/11/20 05:55:02;;;;;;;11.13;7.05;;;0.70;99.90;;;;;;6194660;23;20608;-95
2022/11/20 05:57:49;;;;;;;11.52;6.47;;;0.70;99.90;;;;;;6195078;23;20099;-94
2022/11/20 06:00:35;;;;;;;11.80;6.57;;;0.70;99.90;;;;;;6195211;23;20100;-95
2022/11/20 06:03:01;;;;;;;10.02;6.05;;;0.10;99.90;;;;;;6220089;23;20024;-95
2022/11/20 06:06:04;;;;;;;9.82;6.13;;;0.60;99.90;;;;;;6169425;23;20052;-96
2022/11/20 06:08:31;;;;;;;10.93;6.65;;;0.70;99.90;;;;;;6192069;23;20047;-96
2022/11/20 06:11:02;;;;;;;11.00;5.97;;;1.60;99.90;;;;;;6194845;23;20027;-94
2022/11/20 06:13:51;;;;;;;9.32;5.45;;;0.60;99.90;;;;;;6194591;23;20034;-96
2022/11/20 06:16:19;;;;;;;8.82;5.57;;;0.70;99.90;;;;;;6194030;23;20708;-95
2022/11/20 06:19:06;;;;;;;9.48;5.85;;;0.60;99.90;;;;;;6194305;23;20027;-95
2022/11/20 06:24:55;;;;;;;10.85;6.30;;;0.60;99.90;;;;;;6244912;23;20086;-95
2022/11/20 06:27:39;;;;;;;9.80;6.55;;;0.60;99.90;;;;;;6169236;23;20020;-94
2022/11/20 06:30:24;;;;;;;11.80;6.35;;;0.70;99.90;;;;;;6169179;23;20052;-95
2022/11/20 06:33:27;;;;;;;9.80;5.88;;;0.70;99.90;;;;;;6193968;23;20035;-94
2022/11/20 06:36:00;;;;;;;9.82;5.85;;;0.70;99.90;;;;;;6193919;23;20304;-94
2022/11/20 06:38:27;;;;;;;9.77;6.00;;;0.70;99.90;;;;;;6193758;23;20016;-95
2022/11/20 06:41:15;;;;;;;10.15;5.60;;;0.70;99.90;;;;;;6194454;23;20027;-94
2022/11/20 06:43:41;;;;;;;9.98;6.35;;;0.80;99.90;;;;;;6194565;23;20457;-95
2022/11/20 06:50:08;;;;;;;10.27;5.95;;;0.70;99.90;;;;;;6243725;23;20016;-95
2022/11/20 06:52:52;;;;;;;10.07;6.03;;;0.70;99.90;;;;;;6193687;23;20457;-94
2022/11/20 06:55:20;;;;;;;8.70;5.70;;;0.80;99.90;;;;;;6194656;23;20020;-94
2022/11/20 06:57:45;;;;;;;14.48;6.45;;;0.70;99.90;;;;;;6144926;23;20086;-93
2022/11/20 07:00:12;;;;;;;11.43;6.32;;;0.70;99.90;;;;;;6169204;23;20389;-93
2022/11/20 07:03:18;;;;;;;12.70;6.60;;;0.80;99.90;;;;;;6169632;23;20022;-94
2022/11/20 07:05:45;;;;;;;9.25;5.93;;;0.80;99.90;;;;;;6193926;23;20016;-94
2022/11/20 07:08:17;;;;;;;9.20;5.88;;;0.80;99.90;;;;;;6193263;23;20020;-94
2022/11/20 07:10:45;;;;;;;9.38;5.80;;;0.80;99.90;;;;;;6164040;23;20046;-93
2022/11/20 07:13:11;;;;;;;9.80;6.00;;;0.80;99.90;;;;;;6138945;23;20056;-93
2022/11/20 07:16:00;;;;;;;10.52;6.05;;;0.80;99.90;;;;;;6163764;23;20025;-94
2022/11/20 07:18:29;;;;;;;12.75;7.03;;;0.90;99.90;;;;;;6187756;23;20020;-94
2022/11/20 07:21:34;;;;;;;9.90;6.90;;;0.80;99.90;;;;;;6163120;23;20020;-94
2022/11/20 07:24:00;;;;;;;14.40;9.40;;;0.90;99.90;;;;;;6161874;23;20398;-94
2022/11/20 07:26:26;;;;;;;16.00;10.73;;;0.80;99.90;;;;;;6162630;23;20016;-94
2022/11/20 07:28:52;;;;;;;12.77;8.93;;;0.80;99.90;;;;;;6163118;23;20025;-93
2022/11/20 07:31:20;;;;;;;10.10;6.32;;;0.90;99.90;;;;;;6139333;23;20024;-94
2022/11/20 07:33:48;;;;;;;9.65;6.03;;;0.90;99.90;;;;;;6139988;23;20013;-94
2022/11/20 07:36:14;;;;;;;10.02;6.32;;;1.00;99.90;;;;;;6136614;23;20020;-95
2022/11/20 07:39:04;;;;;;;;;;;;;;;;;;;;;
2022/11/20 07:45:57;;;;;;;;;;;;;;;;;;;;;
2022/11/20 07:48:58;;;;;;;;;;;;;;;;;;;;;
2022/11/20 07:51:59;;;;;;;;;;;;;;;;;;;;;
2022/11/20 07:54:59;;;;;;;;;;;;;;;;;;;;;
2022/11/20 07:58:36;;;;;;;;;;;;;;;;;;;;;
2022/11/20 08:05:19;;;;;;;;;;;;;;;;;;;;;
2022/11/20 08:08:03;;;;;;;8.52;5.55;;;1.00;99.90;;;;;;6219913;23;20021;-94
2022/11/20 08:15:02;;;;;;;;;;;;;;;;;;;;;
2022/11/20 08:18:50;;;;;;;;;;;;;;;;;;;;;
2022/11/20 08:25:31;;;;;;;;;;;;;;;;;;;;;
2022/11/20 08:28:49;;;;;;;;;;;;;;;;;;;;;
2022/11/20 16:03:29;;;;;;;12.43;5.88;;;1.40;99.90;;;;;;6204412;22;20024;31
2022/11/20 16:05:58;;;;;;;11.95;6.78;;;2.40;99.90;;;;;;6186987;22;20024;-96
2022/11/20 16:08:24;;;;;;;11.25;6.13;;;1.30;99.90;;;;;;6253591;22;20062;-95
2022/11/20 16:11:50;;;;;;;;;;;;;;;;;;;;;
2022/11/20 16:18:31;;;;;;;;;;;;;;;;;;;;;
2022/11/20 16:32:01;;;;;;;;;;;;;;;;;;;;;
2022/11/20 16:35:10;;;;;;;;;;;;;;;;;;;;;
2022/11/20 16:38:30;;;;;;;;;;;;;;;;;;;;;
2022/11/20 16:42:05;;;;;;;;;;;;;;;;;;;;;
2022/11/20 16:55:50;;;;;;;;;;;;;;;;;;;;;
2022/11/20 17:09:08;;;;;;;;;;;;;;;;;;;;;
2022/11/20 17:12:33;;;;;;;;;;;;;;;;;;;;;
2022/11/20 17:15:23;;;;;;;;;;;;;;;;;;;;;
2022/11/20 17:18:51;;;;;;;;;;;;;;;;;;;;;
2022/11/20 17:25:30;;;;;;;;;;;;;;;;;;;;;
2022/11/20 17:28:35;;;;;;;;;;;;;;;;;;;;;
2022/11/20 17:31:47;;;;;;;;;;;;;;;;;;;;;
2022/11/20 17:35:28;;;;;;;;;;;;;;;;;;;;;
2022/11/20 17:38:35;;;;;;;;;;;;;;;;;;;;;
2022/11/20 17:41:44;;;;;;;;;;;;;;;;;;;;;
2022/11/20 17:45:01;;;;;;;;;;;;;;;;;;;;;
2022/11/20 17:48:16;;;;;;;;;;;;;;;;;;;;;
2022/11/20 17:51:08;;;;;;;;;;;;;;;;;;;;;
2022/11/20 17:54:34;;;;;;;;;;;;;;;;;;;;;
2022/11/20 18:00:56;;;;;;;;;;;;;;;;;;;;;
2022/11/20 18:03:47;;;;;;;10.82;6.88;;;1.00;99.90;;;;;;6280335;22;20077;-96
2022/11/20 18:06:18;;;;;;;13.00;6.80;;;1.00;99.90;;;;;;6230448;22;20470;-96
2022/11/20 18:09:05;;;;;;;9.18;5.68;;;0.90;99.90;;;;;;6281801;22;20019;-95
2022/11/20 18:12:11;;;;;;;12.25;6.60;;;1.00;99.90;;;;;;6255092;22;20094;-94
2022/11/20 18:15:16;;;;;;;11.30;7.15;;;1.00;99.90;;;;;;6255519;22;20015;-95
2022/11/20 18:18:02;;;;;;;10.30;6.47;;;1.00;99.90;;;;;;6254698;22;20350;-94
2022/11/20 18:20:52;;;;;;;9.90;6.40;;;1.00;99.90;;;;;;6254905;22;20024;-96
2022/11/20 18:23:55;;;;;;;10.40;6.88;;;1.10;99.90;;;;;;6255545;22;20023;-95
2022/11/20 18:27:11;;;;;;;;;;;;;;;;;;;;;
2022/11/20 18:30:17;;;;;;;12.07;6.82;;;1.00;99.90;;;;;;6281607;22;20021;-94
2022/11/20 18:32:45;;;;;;;15.60;9.45;;;1.00;99.90;;;;;;6255316;22;20026;-94
2022/11/20 18:35:13;;;;;;;15.77;11.35;;;1.00;99.90;;;;;;6255442;22;20022;-96
2022/11/20 18:37:39;;;;;;;14.88;9.23;;;1.10;99.90;;;;;;6230337;22;20042;-95
2022/11/20 18:40:36;;;;;;;;;;;;;;;;;;;;;
2022/11/20 18:46:28;;;;;;;;;;;;;;;;;;;;;
2022/11/20 18:50:09;;;;;;;;;;;;;;;;;;;;;
2022/11/20 18:57:16;;;;;;;;;;;;;;;;;;;;;
2022/11/20 19:03:53;;;;;;;;;;;;;;;;;;;;;
2022/11/20 19:10:27;;;;;;;;;;;;;;;;;;;;;
2022/11/20 19:13:31;;;;;;;;;;;;;;;;;;;;;
2022/11/20 19:16:43;;;;;;;;;;;;;;;;;;;;;
2022/11/20 19:19:59;;;;;;;11.93;7.40;;;1.10;99.90;;;;;;6274387;22;20022;-96
2022/11/20 19:22:55;;;;;;;12.60;7.65;;;1.00;99.90;;;;;;6234274;22;20015;-95
2022/11/20 19:26:12;;;;;;;;;;;;;;;;;;;;;
2022/11/20 19:32:34;;;;;;;;;;;;;;;;;;;;;
2022/11/20 19:35:58;;;;;;;;;;;;;;;;;;;;;
2022/11/20 19:39:25;;;;;;;;;;;;;;;;;;;;;
2022/11/20 19:53:12;;;;;;;;;;;;;;;;;;;;;
2022/11/20 19:56:51;;;;;;;;;;;;;;;;;;;;;
2022/11/20 20:04:05;;;;;;;;;;;;;;;;;;;;;
2022/11/20 20:07:11;;;;;;;15.68;9.70;;;0.90;99.90;;;;;;6096005;23;20022;-95
